Langley Air Force Base
KLFI : now visible

Airfield :











YOU CAN JOIN US ON...

 
LOGIN :

Register | Disclaimer

   EN    FR    IT 

 









Legend :    VFR   Marginal VFR   IFR   Intensive IFR   Very Intensive IFR
Visi :
Ceiling :
>= 8 km
>= 3000ft
5 to 8 km
1000 to 3000 ft
1500m to 5 km
500 to 1000 ft
800 to 1500m
200 to 500 ft
< 800m
< 200 ft
Symbols :   Thunderstorms  Fog  Heavy snow  Heavy precipitations  Wind > 20 kt






- Airport Elevation : 11 ft


KLFI - Langley Air Force Base

CURRENT METAR :
  • 161656Z 10012KT 9SM SCT025 28/23 A3025 RMK AO2A SLP250 T02820231 $

EXPIRED METARs :
  • 161626Z AUTO 10012KT 9SM BKN024 28/23 A3025 RMK AO2 BKN V SCT SLP250 $
  • 161556Z 08013KT 10SM SCT025 28/23 A3024 RMK AO2A SLP247 T02800229 $
  • 161541Z 09011KT 9SM SCT024 28/23 A3023 RMK AO2A SLP243 $
  • 161526Z AUTO 09013KT 9SM BKN024 28/23 A3023 RMK AO2 SLP243 $
  • 161456Z 09011KT 10SM FEW025 28/23 A3022 RMK AO2A SLP240 T02830232 55001 $

TAF TAF KLFI
Valid from the 16 at 17:00 until the 17 at 23:00 UTC


161700Z 1617/1723 09009KT 9999 SCT025 QNH3018INS
BECMG 1622/1623 12015KT 9999 FEW100 QNH3005INS TX30/1717Z TN24/1710Z
KZDC FIR / North America



MET'MAP, your aeronautical weather chart ! - Copyright ORBIFLY December 2007 - Disclaimer

ORBIFLY MET'MAP TEAM :

Programming & Development : Alexandra Zaïnal
Concept & original design : Baudouin d'Aumeries
Assistance for programming : Marc-Olivier Méhu
Technical & hardware support : Manuel Goepfert

Contact : metmap@orbifly.com




SOURCES & CREDITS :

   NOAA       Earth
Advisory